Gladys, Virginia
Current Conditions -  °F | °C
As of 9:15 AM on Thursday 18 Dec 2014 (Local Time) from K0V4 Reporting Station
Clear Clear  
Wind Chill: 38°   Ceiling: Unl
Heat Index: 41°   Visibility: 10mi
Dew Point: 28°   Wind: 5mph
Humidity: 61%   Direction: 300°WNW
Pressure: 30.17"   Gusts: NA
Location:  37.16°N, 79.07°W
Report Text: K0V4 181415Z AUTO 30004KT 10SM CLR 05/M02 A3017 RMK AO1 T00481021
Loading
Personal Weather Stations






























Interactive Weather Map New forecast layout! Learn more

10-Day Weather Forecast

Advertisements
Track Severe Weather on mobile